sensor_id;sensor_type;location;lat;lon;timestamp;pressure;altitude;pressure_sealevel;temperature;humidity
75886;BME280;64561;44.018;10.144;2023-05-18T00:01:27;101288.69;;;15.27;72.66
75886;BME280;64561;44.018;10.144;2023-05-18T00:03:56;101298.28;;;15.39;73.53
75886;BME280;64561;44.018;10.144;2023-05-18T00:06:23;101288.84;;;15.43;74.09
75886;BME280;64561;44.018;10.144;2023-05-18T00:08:53;101288.84;;;15.43;74.05
75886;BME280;64561;44.018;10.144;2023-05-18T00:11:19;101291.47;;;15.44;74.35
75886;BME280;64561;44.018;10.144;2023-05-18T00:13:47;101289.81;;;15.49;75.08
75886;BME280;64561;44.018;10.144;2023-05-18T00:16:14;101291.53;;;15.52;74.95
75886;BME280;64561;44.018;10.144;2023-05-18T00:18:41;101288.69;;;15.27;75.01
75886;BME280;64561;44.018;10.144;2023-05-18T00:21:10;101291.22;;;15.24;75.63
75886;BME280;64561;44.018;10.144;2023-05-18T00:23:37;101297.19;;;15.22;74.31
75886;BME280;64561;44.018;10.144;2023-05-18T00:26:05;101294.63;;;15.20;75.13
75886;BME280;64561;44.018;10.144;2023-05-18T00:28:32;101296.41;;;15.26;75.03
75886;BME280;64561;44.018;10.144;2023-05-18T00:30:58;101285.25;;;15.25;74.68
75886;BME280;64561;44.018;10.144;2023-05-18T00:33:26;101284.41;;;15.31;74.97
75886;BME280;64561;44.018;10.144;2023-05-18T00:35:53;101292.16;;;15.31;74.09
75886;BME280;64561;44.018;10.144;2023-05-18T00:38:23;101288.44;;;15.09;74.68
75886;BME280;64561;44.018;10.144;2023-05-18T00:40:49;101289.31;;;15.09;74.57
75886;BME280;64561;44.018;10.144;2023-05-18T00:43:16;101291.94;;;15.13;74.13
75886;BME280;64561;44.018;10.144;2023-05-18T00:45:43;101292.00;;;15.19;74.43
75886;BME280;64561;44.018;10.144;2023-05-18T00:48:10;101298.84;;;15.14;73.69
75886;BME280;64561;44.018;10.144;2023-05-18T00:50:37;101297.94;;;15.12;73.56
75886;BME280;64561;44.018;10.144;2023-05-18T00:53:04;101305.78;;;15.21;74.18
75886;BME280;64561;44.018;10.144;2023-05-18T00:55:31;101303.19;;;15.18;73.90
75886;BME280;64561;44.018;10.144;2023-05-18T00:57:59;101305.59;;;15.07;74.25
75886;BME280;64561;44.018;10.144;2023-05-18T01:00:28;101305.41;;;14.92;74.56
75886;BME280;64561;44.018;10.144;2023-05-18T01:02:55;101299.97;;;14.72;75.95
75886;BME280;64561;44.018;10.144;2023-05-18T01:05:23;101307.34;;;14.50;75.31
75886;BME280;64561;44.018;10.144;2023-05-18T01:07:50;101306.53;;;14.53;75.76
75886;BME280;64561;44.018;10.144;2023-05-18T01:10:18;101306.69;;;14.60;76.04
75886;BME280;64561;44.018;10.144;2023-05-18T01:15:23;101305.84;;;14.63;76.36
75886;BME280;64561;44.018;10.144;2023-05-18T01:20:42;101301.13;;;14.36;75.11
75886;BME280;64561;44.018;10.144;2023-05-18T01:28:30;101315.91;;;14.48;75.54
75886;BME280;64561;44.018;10.144;2023-05-18T01:30:58;101312.50;;;14.50;75.40
75886;BME280;64561;44.018;10.144;2023-05-18T01:33:25;101310.66;;;14.43;75.00
75886;BME280;64561;44.018;10.144;2023-05-18T01:35:52;101310.31;;;14.22;75.59
75886;BME280;64561;44.018;10.144;2023-05-18T01:38:22;101310.06;;;14.08;76.54
75886;BME280;64561;44.018;10.144;2023-05-18T01:43:37;101299.16;;;14.21;76.13
75886;BME280;64561;44.018;10.144;2023-05-18T01:46:42;101318.03;;;14.22;75.81
75886;BME280;64561;44.018;10.144;2023-05-18T01:51:54;101308.78;;;14.33;75.77
75886;BME280;64561;44.018;10.144;2023-05-18T01:54:22;101301.22;;;14.42;76.00
75886;BME280;64561;44.018;10.144;2023-05-18T01:56:50;101299.50;;;14.41;75.53
75886;BME280;64561;44.018;10.144;2023-05-18T01:59:20;101307.25;;;14.44;75.68
75886;BME280;64561;44.018;10.144;2023-05-18T02:01:50;101307.97;;;14.35;75.25
75886;BME280;64561;44.018;10.144;2023-05-18T02:04:26;101306.22;;;14.34;75.64
75886;BME280;64561;44.018;10.144;2023-05-18T02:06:53;101309.34;;;14.16;75.58
75886;BME280;64561;44.018;10.144;2023-05-18T02:09:21;101310.00;;;14.03;76.66
75886;BME280;64561;44.018;10.144;2023-05-18T02:11:49;101315.31;;;14.12;76.96
75886;BME280;64561;44.018;10.144;2023-05-18T02:14:16;101324.09;;;14.24;76.75
75886;BME280;64561;44.018;10.144;2023-05-18T02:16:42;101327.47;;;14.21;76.62
75886;BME280;64561;44.018;10.144;2023-05-18T02:19:13;101331.66;;;14.16;75.06
75886;BME280;64561;44.018;10.144;2023-05-18T02:21:40;101331.97;;;13.86;75.99
75886;BME280;64561;44.018;10.144;2023-05-18T02:24:10;101328.16;;;13.64;77.03
75886;BME280;64561;44.018;10.144;2023-05-18T02:26:37;101329.16;;;13.72;77.13
75886;BME280;64561;44.018;10.144;2023-05-18T02:29:05;101332.78;;;13.83;77.29
75886;BME280;64561;44.018;10.144;2023-05-18T02:31:32;101329.63;;;13.98;76.97
75886;BME280;64561;44.018;10.144;2023-05-18T02:33:59;101327.09;;;14.01;76.47
75886;BME280;64561;44.018;10.144;2023-05-18T02:36:27;101327.00;;;13.95;75.72
75886;BME280;64561;44.018;10.144;2023-05-18T02:38:53;101329.50;;;13.90;75.79
75886;BME280;64561;44.018;10.144;2023-05-18T02:41:21;101330.22;;;13.83;76.60
75886;BME280;64561;44.018;10.144;2023-05-18T02:43:48;101329.41;;;13.86;76.59
75886;BME280;64561;44.018;10.144;2023-05-18T02:46:15;101330.31;;;13.88;76.61
75886;BME280;64561;44.018;10.144;2023-05-18T02:48:42;101336.47;;;13.96;76.44
75886;BME280;64561;44.018;10.144;2023-05-18T02:51:11;101335.75;;;14.05;76.13
75886;BME280;64561;44.018;10.144;2023-05-18T02:53:39;101334.94;;;14.07;76.19
75886;BME280;64561;44.018;10.144;2023-05-18T02:56:09;101336.81;;;14.14;75.88
75886;BME280;64561;44.018;10.144;2023-05-18T02:59:10;101336.97;;;14.24;75.77
75886;BME280;64561;44.018;10.144;2023-05-18T03:01:40;101339.63;;;14.30;76.34
75886;BME280;64561;44.018;10.144;2023-05-18T03:04:08;101343.88;;;14.28;75.63
75886;BME280;64561;44.018;10.144;2023-05-18T03:06:40;101341.84;;;14.10;75.86
75886;BME280;64561;44.018;10.144;2023-05-18T03:09:07;101329.63;;;13.97;76.42
75886;BME280;64561;44.018;10.144;2023-05-18T03:11:39;101335.59;;;13.95;76.94
75886;BME280;64561;44.018;10.144;2023-05-18T03:14:07;101334.81;;;14.00;77.64
75886;BME280;64561;44.018;10.144;2023-05-18T03:16:34;101340.81;;;14.00;77.84
75886;BME280;64561;44.018;10.144;2023-05-18T03:19:08;101329.78;;;14.07;77.95
75886;BME280;64561;44.018;10.144;2023-05-18T03:21:38;101332.41;;;14.10;77.81
75886;BME280;64561;44.018;10.144;2023-05-18T03:24:06;101333.38;;;14.15;77.85
75886;BME280;64561;44.018;10.144;2023-05-18T03:26:36;101341.25;;;14.25;77.56
75886;BME280;64561;44.018;10.144;2023-05-18T03:29:05;101346.44;;;14.26;77.19
75886;BME280;64561;44.018;10.144;2023-05-18T03:31:32;101354.13;;;14.23;76.16
75886;BME280;64561;44.018;10.144;2023-05-18T03:34:00;101347.06;;;14.13;76.83
75886;BME280;64561;44.018;10.144;2023-05-18T03:36:27;101353.59;;;13.94;77.37
75886;BME280;64561;44.018;10.144;2023-05-18T03:38:54;101343.22;;;13.91;77.39
75886;BME280;64561;44.018;10.144;2023-05-18T03:41:21;101346.84;;;14.01;78.13
75886;BME280;64561;44.018;10.144;2023-05-18T03:43:48;101349.94;;;13.83;77.71
75886;BME280;64561;44.018;10.144;2023-05-18T03:46:16;101356.56;;;13.71;77.96
75886;BME280;64561;44.018;10.144;2023-05-18T03:48:44;101361.38;;;13.55;78.64
75886;BME280;64561;44.018;10.144;2023-05-18T03:51:11;101364.88;;;13.58;78.82
75886;BME280;64561;44.018;10.144;2023-05-18T03:53:38;101359.50;;;13.46;79.26
75886;BME280;64561;44.018;10.144;2023-05-18T03:56:05;101364.63;;;13.46;79.35
75886;BME280;64561;44.018;10.144;2023-05-18T03:58:32;101359.44;;;13.44;78.94
75886;BME280;64561;44.018;10.144;2023-05-18T04:00:59;101365.69;;;13.56;79.86
75886;BME280;64561;44.018;10.144;2023-05-18T04:03:26;101361.53;;;13.62;79.89
75886;BME280;64561;44.018;10.144;2023-05-18T04:05:53;101369.41;;;13.70;79.34
75886;BME280;64561;44.018;10.144;2023-05-18T04:08:21;101374.63;;;13.73;78.42
75886;BME280;64561;44.018;10.144;2023-05-18T04:10:51;101380.75;;;13.80;79.20
75886;BME280;64561;44.018;10.144;2023-05-18T04:13:18;101375.66;;;13.83;79.33
75886;BME280;64561;44.018;10.144;2023-05-18T04:15:45;101383.97;;;13.69;79.47
75886;BME280;64561;44.018;10.144;2023-05-18T04:18:13;101378.59;;;13.57;79.76
75886;BME280;64561;44.018;10.144;2023-05-18T04:20:41;101379.50;;;13.61;80.28
75886;BME280;64561;44.018;10.144;2023-05-18T04:23:08;101379.72;;;13.71;80.10
75886;BME280;64561;44.018;10.144;2023-05-18T04:25:37;101386.84;;;13.85;80.40
75886;BME280;64561;44.018;10.144;2023-05-18T04:28:05;101385.25;;;13.91;80.56
75886;BME280;64561;44.018;10.144;2023-05-18T04:30:34;101386.63;;;13.74;80.98
75886;BME280;64561;44.018;10.144;2023-05-18T04:33:04;101386.19;;;13.53;81.33
75886;BME280;64561;44.018;10.144;2023-05-18T04:35:32;101388.94;;;13.62;81.27
75886;BME280;64561;44.018;10.144;2023-05-18T04:38:00;101391.72;;;13.71;81.40
75886;BME280;64561;44.018;10.144;2023-05-18T04:40:28;101388.50;;;13.81;81.06
75886;BME280;64561;44.018;10.144;2023-05-18T04:43:00;101393.09;;;13.96;81.63
75886;BME280;64561;44.018;10.144;2023-05-18T04:45:29;101389.81;;;14.06;81.31
75886;BME280;64561;44.018;10.144;2023-05-18T04:47:59;101400.25;;;14.12;81.83
75886;BME280;64561;44.018;10.144;2023-05-18T04:50:27;101401.22;;;14.19;81.96
75886;BME280;64561;44.018;10.144;2023-05-18T04:52:55;101411.66;;;14.27;81.60
75886;BME280;64561;44.018;10.144;2023-05-18T04:55:24;101405.78;;;14.34;81.76
75886;BME280;64561;44.018;10.144;2023-05-18T04:57:57;101408.41;;;14.37;82.04
75886;BME280;64561;44.018;10.144;2023-05-18T05:00:27;101410.25;;;14.44;81.98
75886;BME280;64561;44.018;10.144;2023-05-18T05:02:57;101411.22;;;14.51;81.91
75886;BME280;64561;44.018;10.144;2023-05-18T05:05:25;101416.53;;;14.58;81.64
75886;BME280;64561;44.018;10.144;2023-05-18T05:07:53;101419.25;;;14.66;81.83
75886;BME280;64561;44.018;10.144;2023-05-18T05:10:20;101419.25;;;14.68;81.84
75886;BME280;64561;44.018;10.144;2023-05-18T05:12:48;101420.16;;;14.68;81.85
75886;BME280;64561;44.018;10.144;2023-05-18T05:15:16;101426.22;;;14.72;81.39
75886;BME280;64561;44.018;10.144;2023-05-18T05:17:45;101421.94;;;14.74;81.37
75886;BME280;64561;44.018;10.144;2023-05-18T05:20:12;101428.78;;;14.73;81.42
75886;BME280;64561;44.018;10.144;2023-05-18T05:22:39;101428.88;;;14.78;81.13
75886;BME280;64561;44.018;10.144;2023-05-18T05:25:09;101422.88;;;14.77;80.59
75886;BME280;64561;44.018;10.144;2023-05-18T05:27:36;101429.78;;;14.81;80.07
75886;BME280;64561;44.018;10.144;2023-05-18T05:30:04;101425.69;;;14.93;79.11
75886;BME280;64561;44.018;10.144;2023-05-18T05:32:34;101422.25;;;14.94;78.67
75886;BME280;64561;44.018;10.144;2023-05-18T05:35:03;101418.88;;;14.96;78.27
75886;BME280;64561;44.018;10.144;2023-05-18T05:37:31;101422.38;;;15.01;78.01
75886;BME280;64561;44.018;10.144;2023-05-18T05:39:57;101418.16;;;15.05;78.50
75886;BME280;64561;44.018;10.144;2023-05-18T05:42:26;101423.31;;;15.06;78.73
75886;BME280;64561;44.018;10.144;2023-05-18T05:44:53;101412.22;;;15.11;79.06
75886;BME280;64561;44.018;10.144;2023-05-18T05:47:21;101413.13;;;15.16;78.76
75886;BME280;64561;44.018;10.144;2023-05-18T05:49:48;101418.41;;;15.23;78.66
75886;BME280;64561;44.018;10.144;2023-05-18T05:52:15;101415.91;;;15.29;78.12
75886;BME280;64561;44.018;10.144;2023-05-18T05:54:42;101409.97;;;15.35;78.62
75886;BME280;64561;44.018;10.144;2023-05-18T05:57:10;101412.66;;;15.41;78.09
75886;BME280;64561;44.018;10.144;2023-05-18T05:59:37;101410.09;;;15.46;77.09
75886;BME280;64561;44.018;10.144;2023-05-18T06:02:04;101419.69;;;15.53;76.44
75886;BME280;64561;44.018;10.144;2023-05-18T06:04:31;101428.31;;;15.57;76.88
75886;BME280;64561;44.018;10.144;2023-05-18T06:06:59;101427.53;;;15.64;76.86
75886;BME280;64561;44.018;10.144;2023-05-18T06:09:27;101419.91;;;15.70;76.21
75886;BME280;64561;44.018;10.144;2023-05-18T06:11:55;101421.75;;;15.77;75.84
75886;BME280;64561;44.018;10.144;2023-05-18T06:14:23;101429.50;;;15.80;75.84
75886;BME280;64561;44.018;10.144;2023-05-18T06:16:52;101429.50;;;15.80;76.34
75886;BME280;64561;44.018;10.144;2023-05-18T06:19:19;101430.41;;;15.85;75.52
75886;BME280;64561;44.018;10.144;2023-05-18T06:21:46;101420.97;;;15.86;74.81
75886;BME280;64561;44.018;10.144;2023-05-18T06:24:13;101422.78;;;15.93;74.05
75886;BME280;64561;44.018;10.144;2023-05-18T06:26:47;101420.19;;;15.94;73.34
75886;BME280;64561;44.018;10.144;2023-05-18T06:29:32;101425.50;;;16.05;72.59
75886;BME280;64561;44.018;10.144;2023-05-18T06:32:19;101426.47;;;16.18;72.43
75886;BME280;64561;44.018;10.144;2023-05-18T06:34:52;101436.94;;;16.30;70.88
75886;BME280;64561;44.018;10.144;2023-05-18T06:37:19;101430.09;;;16.31;70.45
75886;BME280;64561;44.018;10.144;2023-05-18T06:39:47;101434.38;;;16.33;71.00
75886;BME280;64561;44.018;10.144;2023-05-18T06:42:14;101435.38;;;16.43;70.69
75886;BME280;64561;44.018;10.144;2023-05-18T06:44:59;101426.72;;;16.41;69.20
75886;BME280;64561;44.018;10.144;2023-05-18T06:47:45;101424.19;;;16.49;68.99
75886;BME280;64561;44.018;10.144;2023-05-18T06:50:13;101424.31;;;16.58;69.36
75886;BME280;64561;44.018;10.144;2023-05-18T06:52:39;101420.91;;;16.65;68.53
75886;BME280;64561;44.018;10.144;2023-05-18T06:55:07;101415.72;;;16.63;68.92
75886;BME280;64561;44.018;10.144;2023-05-18T06:57:34;101400.22;;;16.62;69.17
75886;BME280;64561;44.018;10.144;2023-05-18T07:00:02;101397.66;;;16.65;68.08
75886;BME280;64561;44.018;10.144;2023-05-18T07:02:35;101395.13;;;16.71;67.46
75886;BME280;64561;44.018;10.144;2023-05-18T07:05:03;101397.81;;;16.79;67.85
75886;BME280;64561;44.018;10.144;2023-05-18T07:07:32;101392.66;;;16.79;68.87
75886;BME280;64561;44.018;10.144;2023-05-18T07:09:58;101390.94;;;16.82;69.09
75886;BME280;64561;44.018;10.144;2023-05-18T07:12:25;101393.59;;;16.95;68.20
75886;BME280;64561;44.018;10.144;2023-05-18T07:14:54;101402.34;;;17.09;68.15
75886;BME280;64561;44.018;10.144;2023-05-18T07:17:20;101398.88;;;17.14;67.43
75886;BME280;64561;44.018;10.144;2023-05-18T07:19:48;101392.91;;;17.23;66.95
75886;BME280;64561;44.018;10.144;2023-05-18T07:22:14;101404.06;;;17.14;66.65
75886;BME280;64561;44.018;10.144;2023-05-18T07:24:41;101401.47;;;17.10;65.53
75886;BME280;64561;44.018;10.144;2023-05-18T07:27:08;101400.69;;;17.29;64.59
75886;BME280;64561;44.018;10.144;2023-05-18T07:29:35;101408.47;;;17.28;66.00
75886;BME280;64561;44.018;10.144;2023-05-18T07:32:02;101405.03;;;17.30;66.74
75886;BME280;64561;44.018;10.144;2023-05-18T07:34:30;101414.56;;;17.41;65.28
75886;BME280;64561;44.018;10.144;2023-05-18T07:36:57;101415.50;;;17.59;65.22
75886;BME280;64561;44.018;10.144;2023-05-18T07:39:24;101415.50;;;17.56;63.65
75886;BME280;64561;44.018;10.144;2023-05-18T07:41:55;101418.97;;;17.62;63.71
75886;BME280;64561;44.018;10.144;2023-05-18T07:44:21;101420.69;;;17.59;64.30
75886;BME280;64561;44.018;10.144;2023-05-18T07:46:49;101425.88;;;17.66;64.58
75886;BME280;64561;44.018;10.144;2023-05-18T07:49:16;101414.69;;;17.65;63.91
75886;BME280;64561;44.018;10.144;2023-05-18T07:51:43;101419.03;;;17.69;65.05
75886;BME280;64561;44.018;10.144;2023-05-18T07:54:10;101416.53;;;17.81;62.55
75886;BME280;64561;44.018;10.144;2023-05-18T07:56:38;101421.72;;;17.85;61.96
75886;BME280;64561;44.018;10.144;2023-05-18T07:59:07;101426.00;;;17.79;62.42
75886;BME280;64561;44.018;10.144;2023-05-18T08:01:34;101433.78;;;17.84;63.27
75886;BME280;64561;44.018;10.144;2023-05-18T08:04:03;101429.47;;;17.85;62.55
75886;BME280;64561;44.018;10.144;2023-05-18T08:06:30;101423.44;;;17.89;64.77
75886;BME280;64561;44.018;10.144;2023-05-18T08:08:57;101430.38;;;17.99;64.92
75886;BME280;64561;44.018;10.144;2023-05-18T08:11:24;101429.53;;;18.03;64.33
75886;BME280;64561;44.018;10.144;2023-05-18T08:13:51;101426.09;;;18.10;64.31
75886;BME280;64561;44.018;10.144;2023-05-18T08:16:18;101422.66;;;18.16;63.99
75886;BME280;64561;44.018;10.144;2023-05-18T08:18:45;101415.78;;;18.27;62.90
75886;BME280;64561;44.018;10.144;2023-05-18T08:21:11;101420.97;;;18.36;64.83
75886;BME280;64561;44.018;10.144;2023-05-18T08:23:39;101415.78;;;18.41;63.25
75886;BME280;64561;44.018;10.144;2023-05-18T08:26:06;101420.97;;;18.45;63.97
75886;BME280;64561;44.018;10.144;2023-05-18T08:28:36;101420.97;;;18.58;62.84
75886;BME280;64561;44.018;10.144;2023-05-18T08:31:03;101425.31;;;18.60;62.42
75886;BME280;64561;44.018;10.144;2023-05-18T08:33:30;101430.50;;;18.63;62.74
75886;BME280;64561;44.018;10.144;2023-05-18T08:35:58;101435.69;;;18.72;60.42
75886;BME280;64561;44.018;10.144;2023-05-18T08:38:28;101428.81;;;18.78;61.37
75886;BME280;64561;44.018;10.144;2023-05-18T08:41:09;101436.56;;;18.85;60.64
75886;BME280;64561;44.018;10.144;2023-05-18T08:43:41;101434.84;;;18.87;59.92
75886;BME280;64561;44.018;10.144;2023-05-18T08:46:14;101436.56;;;18.94;59.55
75886;BME280;64561;44.018;10.144;2023-05-18T08:48:44;101444.31;;;19.04;57.50
75886;BME280;64561;44.018;10.144;2023-05-18T08:51:18;101445.19;;;19.01;57.21
75886;BME280;64561;44.018;10.144;2023-05-18T08:53:51;101447.78;;;19.04;57.27
75886;BME280;64561;44.018;10.144;2023-05-18T08:56:23;101450.38;;;19.04;58.53
75886;BME280;64561;44.018;10.144;2023-05-18T08:58:54;101446.91;;;19.24;59.03
75886;BME280;64561;44.018;10.144;2023-05-18T09:01:23;101452.06;;;19.39;58.04
75886;BME280;64561;44.018;10.144;2023-05-18T09:03:55;101462.44;;;19.45;57.86
75886;BME280;64561;44.018;10.144;2023-05-18T09:06:24;101465.03;;;19.39;59.12
75886;BME280;64561;44.018;10.144;2023-05-18T09:08:52;101466.75;;;19.40;58.82
75886;BME280;64561;44.018;10.144;2023-05-18T09:11:24;101480.63;;;19.44;57.54
75886;BME280;64561;44.018;10.144;2023-05-18T09:13:51;101477.13;;;19.43;57.80
75886;BME280;64561;44.018;10.144;2023-05-18T09:16:18;101491.00;;;19.47;58.13
75886;BME280;64561;44.018;10.144;2023-05-18T09:18:45;101488.41;;;19.37;58.54
75886;BME280;64561;44.018;10.144;2023-05-18T09:21:12;101484.94;;;19.31;58.20
75886;BME280;64561;44.018;10.144;2023-05-18T09:23:39;101484.97;;;19.26;61.29
75886;BME280;64561;44.018;10.144;2023-05-18T09:26:07;101486.69;;;19.21;62.29
75886;BME280;64561;44.018;10.144;2023-05-18T09:28:39;101485.84;;;19.24;58.55
75886;BME280;64561;44.018;10.144;2023-05-18T09:31:07;101481.47;;;19.39;58.59
75886;BME280;64561;44.018;10.144;2023-05-18T09:33:36;101481.47;;;19.36;58.59
75886;BME280;64561;44.018;10.144;2023-05-18T09:36:05;101480.59;;;19.47;57.84
75886;BME280;64561;44.018;10.144;2023-05-18T09:38:37;101478.88;;;19.39;57.38
75886;BME280;64561;44.018;10.144;2023-05-18T09:41:17;101481.50;;;19.29;58.65
75886;BME280;64561;44.018;10.144;2023-05-18T09:43:46;101477.16;;;19.28;58.20
75886;BME280;64561;44.018;10.144;2023-05-18T09:46:13;101479.72;;;19.40;59.54
75886;BME280;64561;44.018;10.144;2023-05-18T09:48:45;101478.00;;;19.56;58.27
75886;BME280;64561;44.018;10.144;2023-05-18T09:51:13;101478.03;;;19.44;58.60
75886;BME280;64561;44.018;10.144;2023-05-18T09:53:48;101475.44;;;19.44;56.56
75886;BME280;64561;44.018;10.144;2023-05-18T09:56:16;101468.47;;;19.52;57.36
75886;BME280;64561;44.018;10.144;2023-05-18T09:58:44;101471.91;;;19.55;56.82
75886;BME280;64561;44.018;10.144;2023-05-18T10:01:11;101461.53;;;19.66;59.15
75886;BME280;64561;44.018;10.144;2023-05-18T10:03:38;101471.00;;;19.79;55.94
75886;BME280;64561;44.018;10.144;2023-05-18T10:06:10;101466.69;;;19.83;56.85
75886;BME280;64561;44.018;10.144;2023-05-18T10:08:40;101468.38;;;19.82;56.32
75886;BME280;64561;44.018;10.144;2023-05-18T10:11:08;101467.50;;;19.90;55.89
75886;BME280;64561;44.018;10.144;2023-05-18T10:13:35;101470.94;;;19.96;56.23
75886;BME280;64561;44.018;10.144;2023-05-18T10:16:06;101470.00;;;20.16;55.82
75886;BME280;64561;44.018;10.144;2023-05-18T10:18:35;101473.38;;;20.27;56.47
75886;BME280;64561;44.018;10.144;2023-05-18T10:21:03;101472.47;;;20.34;56.15
75886;BME280;64561;44.018;10.144;2023-05-18T10:23:32;101463.78;;;20.33;56.60
75886;BME280;64561;44.018;10.144;2023-05-18T10:26:04;101471.66;;;20.26;58.55
75886;BME280;64561;44.018;10.144;2023-05-18T10:28:37;101466.50;;;20.20;55.95
75886;BME280;64561;44.018;10.144;2023-05-18T10:31:05;101473.44;;;20.18;58.41
75886;BME280;64561;44.018;10.144;2023-05-18T10:33:34;101470.88;;;20.08;57.20
75886;BME280;64561;44.018;10.144;2023-05-18T10:36:03;101473.56;;;19.95;58.02
75886;BME280;64561;44.018;10.144;2023-05-18T10:38:32;101470.97;;;19.87;60.06
75886;BME280;64561;44.018;10.144;2023-05-18T10:40:59;101468.38;;;19.82;63.07
75886;BME280;64561;44.018;10.144;2023-05-18T10:43:27;101467.56;;;19.73;62.36
75886;BME280;64561;44.018;10.144;2023-05-18T10:45:56;101471.00;;;19.81;59.96
75886;BME280;64561;44.018;10.144;2023-05-18T10:48:25;101464.94;;;19.79;58.99
75886;BME280;64561;44.018;10.144;2023-05-18T10:50:53;101467.50;;;19.90;61.30
75886;BME280;64561;44.018;10.144;2023-05-18T10:53:25;101465.72;;;20.01;59.79
75886;BME280;64561;44.018;10.144;2023-05-18T10:55:53;101466.56;;;20.07;59.24
75886;BME280;64561;44.018;10.144;2023-05-18T10:58:22;101460.50;;;20.02;58.38
75886;BME280;64561;44.018;10.144;2023-05-18T11:01:27;101463.94;;;20.06;58.47
75886;BME280;64561;44.018;10.144;2023-05-18T11:03:54;101457.91;;;20.07;59.44
75886;BME280;64561;44.018;10.144;2023-05-18T11:06:22;101463.94;;;20.14;58.50
75886;BME280;64561;44.018;10.144;2023-05-18T11:08:50;101464.69;;;20.31;57.61
75886;BME280;64561;44.018;10.144;2023-05-18T11:11:22;101462.13;;;20.28;57.15
75886;BME280;64561;44.018;10.144;2023-05-18T11:13:49;101462.06;;;20.36;54.95
75886;BME280;64561;44.018;10.144;2023-05-18T11:16:19;101452.53;;;20.33;56.40
75886;BME280;64561;44.018;10.144;2023-05-18T11:18:48;101449.97;;;20.30;56.65
75886;BME280;64561;44.018;10.144;2023-05-18T11:21:29;101450.88;;;20.23;53.83
75886;BME280;64561;44.018;10.144;2023-05-18T11:29:42;101448.13;;;20.52;54.55
75886;BME280;64561;44.018;10.144;2023-05-18T11:32:26;101442.84;;;20.63;53.29
75886;BME280;64561;44.018;10.144;2023-05-18T11:34:57;101434.13;;;20.70;53.65
75886;BME280;64561;44.018;10.144;2023-05-18T11:40:08;101425.25;;;20.92;55.87
75886;BME280;64561;44.018;10.144;2023-05-18T11:42:37;101425.25;;;20.94;57.23
75886;BME280;64561;44.018;10.144;2023-05-18T11:45:08;101420.97;;;20.88;52.36
75886;BME280;64561;44.018;10.144;2023-05-18T11:47:36;101423.53;;;20.90;54.80
75886;BME280;64561;44.018;10.144;2023-05-18T11:50:06;101428.66;;;21.00;52.87
75886;BME280;64561;44.018;10.144;2023-05-18T11:52:44;101412.91;;;21.11;52.83
75886;BME280;64561;44.018;10.144;2023-05-18T11:55:14;101418.91;;;21.18;51.63
75886;BME280;64561;44.018;10.144;2023-05-18T11:57:42;101423.28;;;21.16;51.73
75886;BME280;64561;44.018;10.144;2023-05-18T12:00:11;101423.28;;;21.16;50.90
75886;BME280;64561;44.018;10.144;2023-05-18T12:02:42;101420.78;;;21.07;51.33
75886;BME280;64561;44.018;10.144;2023-05-18T12:05:11;101420.81;;;21.04;53.18
75886;BME280;64561;44.018;10.144;2023-05-18T12:07:40;101413.94;;;20.93;52.94
75886;BME280;64561;44.018;10.144;2023-05-18T12:10:09;101415.63;;;21.00;53.35
75886;BME280;64561;44.018;10.144;2023-05-18T12:12:37;101412.22;;;20.94;55.61
75886;BME280;64561;44.018;10.144;2023-05-18T12:15:07;101416.47;;;21.02;54.46
75886;BME280;64561;44.018;10.144;2023-05-18T12:17:38;101420.75;;;21.10;52.55
75886;BME280;64561;44.018;10.144;2023-05-18T12:20:08;101419.88;;;21.08;53.69
75886;BME280;64561;44.018;10.144;2023-05-18T12:22:35;101427.00;;;20.92;53.03
75886;BME280;64561;44.018;10.144;2023-05-18T12:25:03;101423.72;;;20.70;53.10
75886;BME280;64561;44.018;10.144;2023-05-18T12:27:30;101431.69;;;20.42;54.66
75886;BME280;64561;44.018;10.144;2023-05-18T12:29:58;101439.50;;;20.41;54.51
75886;BME280;64561;44.018;10.144;2023-05-18T12:32:29;101433.47;;;20.37;52.98
75886;BME280;64561;44.018;10.144;2023-05-18T12:34:56;101436.91;;;20.36;53.56
75886;BME280;64561;44.018;10.144;2023-05-18T12:37:24;101439.59;;;20.28;53.82
75886;BME280;64561;44.018;10.144;2023-05-18T12:40:04;101440.41;;;20.33;53.73
75886;BME280;64561;44.018;10.144;2023-05-18T12:42:32;101439.63;;;20.21;55.45
75886;BME280;64561;44.018;10.144;2023-05-18T12:45:00;101446.66;;;20.05;51.83
75886;BME280;64561;44.018;10.144;2023-05-18T12:47:31;101446.72;;;19.88;52.35
75886;BME280;64561;44.018;10.144;2023-05-18T12:50:02;101448.50;;;19.83;54.85
75886;BME280;64561;44.018;10.144;2023-05-18T12:52:29;101442.41;;;19.82;54.51
75886;BME280;64561;44.018;10.144;2023-05-18T12:54:56;101437.25;;;19.78;55.11
75886;BME280;64561;44.018;10.144;2023-05-18T12:57:26;101437.28;;;19.72;55.62
75886;BME280;64561;44.018;10.144;2023-05-18T12:59:57;101438.09;;;19.78;54.72
75886;BME280;64561;44.018;10.144;2023-05-18T13:05:07;101443.31;;;19.75;56.11
75886;BME280;64561;44.018;10.144;2023-05-18T13:07:42;101441.56;;;19.76;56.26
75886;BME280;64561;44.018;10.144;2023-05-18T13:10:11;101441.56;;;19.76;56.71
75886;BME280;64561;44.018;10.144;2023-05-18T13:12:43;101434.66;;;19.73;56.17
75886;BME280;64561;44.018;10.144;2023-05-18T13:17:53;101425.16;;;19.77;55.94
75886;BME280;64561;44.018;10.144;2023-05-18T13:20:21;101430.34;;;19.77;57.56